createdAt,value
2019-04-25T00:01:25.601Z,2.22
2019-04-25T00:03:54.304Z,2.20
2019-04-25T00:06:24.213Z,1.80
2019-04-25T00:08:53.479Z,1.70
2019-04-25T00:11:22.295Z,2.02
2019-04-25T00:13:51.598Z,1.45
2019-04-25T00:16:22.309Z,1.60
2019-04-25T00:18:51.709Z,1.37
2019-04-25T00:21:22.045Z,1.20
2019-04-25T00:23:52.382Z,1.20
2019-04-25T00:26:22.447Z,1.30
2019-04-25T00:28:52.304Z,1.20
2019-04-25T00:31:22.052Z,0.93
2019-04-25T00:33:52.490Z,1.33
2019-04-25T00:36:21.773Z,0.95
2019-04-25T00:38:52.000Z,1.10
2019-04-25T00:41:21.347Z,1.10
2019-04-25T00:43:51.504Z,1.20
2019-04-25T00:46:20.064Z,1.00
2019-04-25T00:48:48.485Z,1.30
2019-04-25T00:51:16.904Z,1.00
2019-04-25T00:53:46.110Z,0.90
2019-04-25T00:56:14.553Z,0.80
2019-04-25T00:58:45.286Z,1.00
2019-04-25T01:01:21.864Z,0.80
2019-04-25T01:03:51.811Z,0.85
2019-04-25T01:06:22.039Z,1.30
2019-04-25T01:08:53.243Z,1.10
2019-04-25T01:11:21.507Z,1.40
2019-04-25T01:13:50.438Z,1.40
2019-04-25T01:16:21.943Z,1.80
2019-04-25T01:18:50.890Z,1.30
2019-04-25T01:21:19.409Z,1.47
2019-04-25T01:23:47.847Z,1.30
2019-04-25T01:26:16.347Z,1.30
2019-04-25T01:28:46.050Z,1.67
2019-04-25T01:31:16.671Z,1.60
2019-04-25T01:33:45.101Z,1.50
2019-04-25T01:36:24.109Z,1.80
2019-04-25T01:38:58.836Z,1.80
2019-04-25T01:41:29.094Z,1.50
2019-04-25T01:43:59.722Z,1.80
2019-04-25T01:46:28.821Z,1.52
2019-04-25T01:48:57.269Z,1.80
2019-04-25T01:51:25.697Z,1.70
2019-04-25T01:53:54.850Z,2.30
2019-04-25T01:56:24.775Z,2.10
2019-04-25T01:58:54.725Z,2.37
2019-04-25T02:01:24.136Z,3.00
2019-04-25T02:03:54.304Z,2.90
2019-04-25T02:06:23.148Z,3.02
2019-04-25T02:08:54.963Z,3.40
2019-04-25T02:11:43.896Z,4.60
2019-04-25T02:14:13.716Z,5.10
2019-04-25T02:16:43.829Z,6.30
2019-04-25T02:19:12.524Z,7.17
2019-04-25T02:21:40.933Z,7.28
2019-04-25T02:24:09.358Z,7.62
2019-04-25T02:26:37.802Z,8.30
2019-04-25T02:29:06.238Z,8.18
2019-04-25T02:31:35.000Z,8.80
2019-04-25T02:34:08.147Z,9.03
2019-04-25T02:36:34.699Z,8.55
2019-04-25T02:39:08.890Z,10.32
2019-04-25T02:41:36.746Z,10.05
2019-04-25T02:44:09.418Z,10.35
2019-04-25T02:46:37.383Z,10.90
2019-04-25T02:49:29.912Z,10.90
2019-04-25T02:51:47.949Z,11.85
2019-04-25T02:54:16.385Z,11.20
2019-04-25T02:56:46.657Z,12.40
2019-04-25T02:59:15.156Z,12.73
2019-04-25T03:01:44.502Z,12.97
2019-04-25T03:04:14.384Z,12.95
2019-04-25T03:06:45.282Z,13.80
2019-04-25T03:09:15.392Z,13.93
2019-04-25T03:11:45.137Z,13.40
2019-04-25T03:14:14.688Z,13.98
2019-04-25T03:16:44.825Z,13.98
2019-04-25T03:19:34.266Z,14.20
2019-04-25T03:22:09.191Z,13.95
2019-04-25T03:24:35.213Z,13.83
2019-04-25T03:27:05.222Z,13.77
2019-04-25T03:29:34.267Z,14.10
2019-04-25T03:32:07.267Z,14.33
2019-04-25T03:34:35.125Z,14.68
2019-04-25T03:37:05.249Z,14.20
2019-04-25T03:39:33.582Z,14.80
2019-04-25T03:42:02.260Z,14.47
2019-04-25T03:44:31.224Z,14.80
2019-04-25T03:46:59.661Z,14.07
2019-04-25T03:49:28.116Z,15.23
2019-04-25T03:51:56.788Z,14.70
2019-04-25T03:54:25.218Z,15.88
2019-04-25T03:56:56.041Z,15.88
2019-04-25T03:59:23.808Z,14.40
2019-04-25T04:01:53.743Z,16.40
2019-04-25T04:04:23.717Z,18.15
2019-04-25T04:06:53.746Z,18.10
2019-04-25T04:09:23.870Z,19.25
2019-04-25T04:11:53.445Z,20.20
2019-04-25T04:14:23.833Z,20.53
2019-04-25T04:17:10.875Z,21.55
2019-04-25T04:19:46.821Z,20.77
2019-04-25T04:22:16.909Z,21.35
2019-04-25T04:24:46.974Z,25.35
2019-04-25T04:27:16.861Z,21.70
2019-04-25T04:29:45.301Z,21.07
2019-04-25T04:32:14.829Z,21.40
2019-04-25T04:34:45.519Z,20.12
2019-04-25T04:37:15.207Z,19.92
2019-04-25T04:39:44.200Z,18.95
2019-04-25T04:42:13.995Z,16.03
2019-04-25T04:44:43.751Z,15.18
2019-04-25T04:47:14.060Z,14.83
2019-04-25T04:49:43.936Z,14.83
2019-04-25T04:52:14.098Z,12.77
2019-04-25T04:54:43.921Z,12.90
2019-04-25T04:57:23.228Z,11.20
2019-04-25T04:59:43.837Z,11.73
2019-04-25T05:02:15.057Z,11.80
2019-04-25T05:04:58.024Z,11.50
2019-04-25T05:07:44.376Z,12.33
2019-04-25T05:10:14.506Z,13.18
2019-04-25T05:12:43.801Z,13.50
2019-04-25T05:15:15.295Z,13.45
2019-04-25T05:17:44.084Z,13.77
2019-04-25T05:20:13.405Z,13.78
2019-04-25T05:22:44.433Z,14.35
2019-04-25T05:25:15.287Z,14.10
2019-04-25T05:27:57.808Z,13.78
2019-04-25T05:30:17.099Z,13.07
2019-04-25T05:32:46.658Z,14.40
2019-04-25T05:35:16.289Z,12.95
2019-04-25T05:37:44.824Z,13.58
2019-04-25T05:40:14.742Z,12.57
2019-04-25T05:42:47.932Z,12.53
2019-04-25T05:45:18.927Z,11.70
2019-04-25T05:47:48.261Z,12.65
2019-04-25T05:50:17.804Z,11.00
2019-04-25T05:52:46.386Z,11.10
2019-04-25T05:55:17.309Z,10.40
2019-04-25T05:57:49.872Z,8.60
2019-04-25T06:00:17.504Z,8.80
2019-04-25T06:02:46.251Z,9.35
2019-04-25T06:05:14.908Z,9.08
2019-04-25T06:07:43.351Z,7.30
2019-04-25T06:10:17.177Z,7.00
2019-04-25T06:12:48.221Z,5.97
2019-04-25T06:15:18.305Z,6.15
2019-04-25T06:17:48.461Z,6.67
2019-04-25T06:20:19.271Z,7.00
2019-04-25T06:22:53.438Z,7.30
2019-04-25T06:25:29.289Z,7.45
2019-04-25T06:27:59.211Z,6.65
2019-04-25T06:30:29.627Z,7.62
2019-04-25T06:32:58.171Z,6.70
2019-04-25T06:35:27.505Z,6.40
2019-04-25T06:37:56.024Z,6.08
2019-04-25T06:40:26.271Z,6.40
2019-04-25T06:42:55.606Z,6.40
2019-04-25T06:45:44.137Z,5.78
2019-04-25T06:48:14.562Z,6.00
2019-04-25T06:50:43.787Z,5.10
2019-04-25T06:53:13.570Z,5.47
2019-04-25T06:55:43.398Z,5.17
2019-04-25T06:58:14.329Z,5.75
2019-04-25T07:00:55.791Z,4.70
2019-04-25T07:03:13.970Z,5.10
2019-04-25T07:05:43.947Z,4.30
2019-04-25T07:08:13.321Z,4.50
2019-04-25T07:10:41.901Z,4.90
2019-04-25T07:13:10.332Z,5.37
2019-04-25T07:15:38.760Z,3.90
2019-04-25T07:18:07.203Z,3.80
2019-04-25T07:20:35.637Z,4.00
2019-04-25T07:23:04.322Z,3.30
2019-04-25T07:25:35.428Z,3.87
2019-04-25T07:28:21.526Z,3.00
2019-04-25T07:30:51.951Z,3.62
2019-04-25T07:33:27.157Z,3.40
2019-04-25T07:35:56.873Z,3.10
2019-04-25T07:38:25.630Z,2.80
2019-04-25T07:40:54.099Z,2.95
2019-04-25T07:43:23.364Z,2.30
2019-04-25T07:45:53.422Z,2.77
2019-04-25T07:48:23.279Z,2.10
2019-04-25T07:50:53.619Z,2.70
2019-04-25T07:53:23.744Z,2.90
2019-04-25T07:55:54.182Z,2.50
2019-04-25T07:58:34.093Z,2.77
2019-04-25T08:00:53.950Z,3.05
2019-04-25T08:03:30.030Z,2.50
2019-04-25T08:06:00.184Z,2.65
2019-04-25T08:08:29.695Z,2.90
2019-04-25T08:11:04.833Z,2.10
2019-04-25T08:13:38.041Z,2.10
2019-04-25T08:16:08.097Z,2.80
2019-04-25T08:18:38.955Z,2.60
2019-04-25T08:21:07.545Z,2.70
2019-04-25T08:23:37.703Z,2.10
2019-04-25T08:26:06.142Z,2.33
2019-04-25T08:28:48.473Z,2.17
2019-04-25T08:31:05.055Z,1.60
2019-04-25T08:33:34.585Z,2.00
2019-04-25T08:36:08.900Z,1.80
2019-04-25T08:38:34.852Z,1.60
2019-04-25T08:41:04.183Z,1.80
2019-04-25T08:43:34.830Z,1.80
2019-04-25T08:46:04.234Z,1.98
2019-04-25T08:48:34.972Z,2.47
2019-04-25T08:51:05.945Z,1.50
2019-04-25T08:53:45.142Z,2.10
2019-04-25T08:56:15.264Z,1.40
2019-04-25T08:58:45.329Z,1.52
2019-04-25T09:01:27.325Z,1.90
2019-04-25T09:04:05.183Z,1.50
2019-04-25T09:06:35.992Z,1.72
2019-04-25T09:09:07.161Z,1.50
2019-04-25T09:11:37.991Z,1.50
2019-04-25T09:14:05.772Z,1.25
2019-04-25T09:16:35.408Z,1.40
2019-04-25T09:19:04.727Z,1.55
2019-04-25T09:21:34.661Z,2.20
2019-04-25T09:24:04.500Z,1.80
2019-04-25T09:26:34.915Z,1.32
2019-04-25T09:29:16.007Z,1.92
2019-04-25T09:31:37.018Z,1.65
2019-04-25T09:34:04.717Z,1.60
2019-04-25T09:36:33.665Z,1.40
2019-04-25T09:39:03.844Z,1.60
2019-04-25T09:41:33.596Z,1.50
2019-04-25T09:44:04.565Z,1.50
2019-04-25T09:46:35.910Z,1.70
2019-04-25T09:49:06.445Z,1.50
2019-04-25T09:51:37.521Z,1.77
2019-04-25T09:54:07.665Z,2.05
2019-04-25T09:56:38.272Z,1.98
2019-04-25T09:59:14.024Z,1.75
2019-04-25T10:01:44.886Z,1.40
2019-04-25T10:04:13.444Z,2.50
2019-04-25T10:06:44.578Z,2.12
2019-04-25T10:09:13.548Z,5.60
2019-04-25T10:11:43.969Z,1.67
2019-04-25T10:14:27.478Z,1.98
2019-04-25T10:16:56.150Z,1.67
2019-04-25T10:19:24.575Z,2.10
2019-04-25T10:21:55.033Z,3.00
2019-04-25T10:24:23.240Z,2.10
2019-04-25T10:26:53.023Z,1.90
2019-04-25T10:29:21.844Z,2.33
2019-04-25T10:31:51.111Z,2.87
2019-04-25T10:34:19.771Z,2.00
2019-04-25T10:36:48.943Z,2.00
2019-04-25T10:39:17.438Z,1.27
2019-04-25T10:41:46.832Z,2.00
2019-04-25T10:44:16.278Z,2.25
2019-04-25T10:46:46.123Z,2.08
2019-04-25T10:49:15.094Z,1.80
2019-04-25T10:51:44.758Z,1.92
2019-04-25T10:54:14.552Z,1.80
2019-04-25T10:56:45.701Z,2.10
2019-04-25T10:59:14.440Z,1.90
2019-04-25T11:01:44.669Z,1.75
2019-04-25T11:04:26.865Z,1.90
2019-04-25T11:06:55.729Z,2.40
2019-04-25T11:09:25.524Z,2.40
2019-04-25T11:11:54.289Z,1.70
2019-04-25T11:14:23.931Z,2.60
2019-04-25T11:16:54.674Z,2.30
2019-04-25T11:19:23.887Z,2.65
2019-04-25T11:21:53.824Z,2.40
2019-04-25T11:24:23.739Z,2.00
2019-04-25T11:26:55.161Z,2.25
2019-04-25T11:29:24.039Z,2.70
2019-04-25T11:31:53.392Z,2.30
2019-04-25T11:34:23.043Z,1.90
2019-04-25T11:36:51.490Z,2.00
2019-04-25T11:39:39.698Z,2.17
2019-04-25T11:42:09.885Z,2.15
2019-04-25T11:44:38.576Z,2.33
2019-04-25T11:47:08.608Z,3.12
2019-04-25T11:49:37.205Z,2.33
2019-04-25T11:52:05.985Z,2.52
2019-04-25T11:54:34.489Z,2.25
2019-04-25T11:57:03.551Z,2.50
2019-04-25T11:59:32.009Z,2.02
2019-04-25T12:02:00.526Z,1.67
2019-04-25T12:04:28.948Z,2.20
2019-04-25T12:06:57.365Z,1.90
2019-04-25T12:09:25.828Z,2.70
2019-04-25T12:11:54.537Z,1.10
2019-04-25T12:14:23.541Z,1.37
2019-04-25T12:16:54.978Z,1.60
2019-04-25T12:19:34.674Z,1.50
2019-04-25T12:21:56.227Z,1.30
2019-04-25T12:24:23.941Z,1.85
2019-04-25T12:26:54.440Z,1.57
2019-04-25T12:29:24.308Z,1.62
2019-04-25T12:31:54.591Z,1.72
2019-04-25T12:34:25.489Z,1.50
2019-04-25T12:36:55.670Z,1.50
2019-04-25T12:39:24.988Z,1.60
2019-04-25T12:41:54.481Z,1.62
2019-04-25T12:44:43.479Z,3.27
2019-04-25T12:47:14.836Z,2.40
2019-04-25T12:49:43.791Z,1.45
2019-04-25T12:52:12.499Z,1.80
2019-04-25T12:54:40.965Z,1.75
2019-04-25T12:57:09.462Z,1.50
2019-04-25T12:59:37.930Z,1.50
2019-04-25T13:02:06.433Z,1.80
2019-04-25T13:04:35.044Z,2.22
2019-04-25T13:07:04.081Z,1.90
2019-04-25T13:09:33.669Z,1.77
2019-04-25T13:12:02.100Z,1.70
2019-04-25T13:14:30.822Z,1.50
2019-04-25T13:16:59.595Z,2.00
2019-04-25T13:19:28.203Z,2.90
2019-04-25T13:21:57.080Z,2.10
2019-04-25T13:24:26.821Z,1.62
2019-04-25T13:27:03.614Z,1.30
2019-04-25T13:29:49.484Z,1.50
2019-04-25T13:32:31.550Z,1.85
2019-04-25T13:35:01.630Z,1.50
2019-04-25T13:37:30.085Z,1.12
2019-04-25T13:39:58.610Z,1.60
2019-04-25T13:42:27.301Z,1.52
2019-04-25T13:44:56.677Z,2.08
2019-04-25T13:47:28.284Z,2.10
2019-04-25T13:49:55.656Z,1.80
2019-04-25T13:52:25.058Z,2.87
2019-04-25T13:54:53.819Z,1.90
2019-04-25T13:57:23.488Z,2.35
2019-04-25T13:59:54.013Z,1.60
2019-04-25T14:02:22.787Z,2.05
2019-04-25T14:04:51.272Z,2.25
2019-04-25T14:07:20.656Z,2.17
2019-04-25T14:09:49.870Z,1.40
2019-04-25T14:12:18.352Z,2.00
2019-04-25T14:14:47.834Z,1.80
2019-04-25T14:17:17.933Z,1.60
2019-04-25T14:19:50.405Z,1.30
2019-04-25T14:22:18.967Z,1.70
2019-04-25T14:24:47.495Z,2.02
2019-04-25T14:27:16.248Z,2.92
2019-04-25T14:29:45.358Z,2.20
2019-04-25T14:32:15.575Z,2.00
2019-04-25T14:34:44.281Z,1.40
2019-04-25T14:37:13.419Z,1.40
2019-04-25T14:39:42.013Z,2.33
2019-04-25T14:42:10.844Z,3.53
2019-04-25T14:44:39.307Z,2.10
2019-04-25T14:47:07.926Z,2.22
2019-04-25T14:49:36.438Z,2.62
2019-04-25T14:52:04.861Z,2.65
2019-04-25T14:54:40.917Z,2.42
2019-04-25T14:57:11.060Z,4.75
2019-04-25T14:59:39.502Z,3.33
2019-04-25T15:02:08.089Z,3.17
2019-04-25T15:04:36.558Z,2.20
2019-04-25T15:07:04.980Z,2.85
2019-04-25T15:09:33.440Z,2.45
2019-04-25T15:12:01.868Z,4.50
2019-04-25T15:14:31.367Z,3.90
2019-04-25T15:16:59.917Z,2.00
2019-04-25T15:19:28.335Z,3.40
2019-04-25T15:21:56.799Z,3.10
2019-04-25T15:24:25.326Z,2.00
2019-04-25T15:26:53.818Z,4.10
2019-04-25T15:29:22.365Z,3.47
2019-04-25T15:31:56.054Z,2.12
2019-04-25T15:34:22.813Z,3.10
2019-04-25T15:36:55.355Z,4.83
2019-04-25T15:39:43.361Z,3.20
2019-04-25T15:42:13.473Z,1.42
2019-04-25T15:45:00.327Z,1.37
2019-04-25T15:47:30.681Z,1.32
2019-04-25T15:49:59.337Z,1.60
2019-04-25T15:52:28.989Z,1.60
2019-04-25T15:55:06.881Z,1.07
2019-04-25T15:57:28.180Z,1.50
2019-04-25T15:59:56.731Z,1.37
2019-04-25T16:02:27.585Z,1.60
2019-04-25T16:04:56.770Z,1.70
2019-04-25T16:07:27.084Z,1.85
2019-04-25T16:09:55.708Z,1.35
2019-04-25T16:12:24.258Z,1.20
2019-04-25T16:14:52.694Z,1.40
2019-04-25T16:17:21.213Z,1.47
2019-04-25T16:19:49.661Z,1.50
2019-04-25T16:22:18.164Z,1.40
2019-04-25T16:24:46.681Z,1.22
2019-04-25T16:27:15.616Z,1.20
2019-04-25T16:29:44.055Z,1.40
2019-04-25T16:32:20.321Z,1.60
2019-04-25T16:34:44.317Z,1.20
2019-04-25T16:37:13.044Z,1.90
2019-04-25T16:39:43.124Z,1.50
2019-04-25T16:42:11.631Z,1.70
2019-04-25T16:44:40.160Z,1.35
2019-04-25T16:47:10.365Z,1.50
2019-04-25T16:49:39.822Z,1.57
2019-04-25T16:52:10.244Z,1.70
2019-04-25T16:54:38.773Z,2.30
2019-04-25T16:57:07.619Z,1.65
2019-04-25T16:59:36.161Z,1.80
2019-04-25T17:02:04.624Z,1.50
2019-04-25T17:04:33.353Z,1.40
2019-04-25T17:07:01.786Z,2.00
2019-04-25T17:09:30.564Z,1.50
2019-04-25T17:11:59.341Z,1.57
2019-04-25T17:14:39.493Z,1.55
2019-04-25T17:17:25.881Z,1.50
2019-04-25T17:19:56.342Z,1.10
2019-04-25T17:22:25.996Z,1.20
2019-04-25T17:24:56.565Z,1.30
2019-04-25T17:27:26.704Z,1.70
2019-04-25T17:29:58.075Z,1.27
2019-04-25T17:32:31.720Z,1.70
2019-04-25T17:35:19.547Z,1.55
2019-04-25T17:38:01.682Z,1.30
2019-04-25T17:40:32.817Z,1.70
2019-04-25T17:43:10.829Z,2.10
2019-04-25T17:45:33.524Z,1.50
2019-04-25T17:48:01.963Z,1.40
2019-04-25T17:50:30.390Z,1.90
2019-04-25T17:52:58.829Z,1.80
2019-04-25T17:55:27.262Z,1.70
2019-04-25T17:57:55.696Z,1.70
2019-04-25T18:00:25.877Z,3.70
2019-04-25T18:02:58.884Z,5.60
2019-04-25T18:05:24.458Z,2.20
2019-04-25T18:07:52.947Z,2.27
2019-04-25T18:10:21.381Z,2.10
2019-04-25T18:12:49.811Z,2.00
2019-04-25T18:15:19.907Z,3.08
2019-04-25T18:17:48.325Z,3.20
2019-04-25T18:20:18.388Z,3.00
2019-04-25T18:22:48.466Z,2.58
2019-04-25T18:25:18.531Z,2.33
2019-04-25T18:27:51.414Z,1.70
2019-04-25T18:30:19.989Z,3.05
2019-04-25T18:33:10.342Z,3.40
2019-04-25T18:35:39.122Z,1.98
2019-04-25T18:38:17.558Z,2.80
2019-04-25T18:40:47.655Z,3.20
2019-04-25T18:43:17.705Z,2.80
2019-04-25T18:45:50.430Z,3.40
2019-04-25T18:48:18.889Z,3.10
2019-04-25T18:50:47.615Z,3.00
2019-04-25T18:53:23.736Z,1.70
2019-04-25T18:55:56.825Z,2.42
2019-04-25T18:58:43.923Z,2.00
2019-04-25T19:01:30.082Z,1.87
2019-04-25T19:04:00.178Z,2.10
2019-04-25T19:06:28.669Z,2.17
2019-04-25T19:08:57.101Z,2.10
2019-04-25T19:11:25.847Z,1.77
2019-04-25T19:13:54.575Z,2.33
2019-04-25T19:16:23.001Z,2.35
2019-04-25T19:18:51.634Z,2.83
2019-04-25T19:21:20.112Z,1.80
2019-04-25T19:23:48.579Z,2.00
2019-04-25T19:26:17.034Z,2.05
2019-04-25T19:28:45.470Z,2.00
2019-04-25T19:31:13.893Z,1.80
2019-04-25T19:33:43.263Z,1.60
2019-04-25T19:36:11.748Z,2.90
2019-04-25T19:38:40.659Z,2.00
2019-04-25T19:41:14.247Z,1.80
2019-04-25T19:43:56.010Z,2.33
2019-04-25T19:46:38.517Z,1.90
2019-04-25T19:49:07.818Z,1.90
2019-04-25T19:51:36.624Z,2.20
2019-04-25T19:54:06.248Z,2.20
2019-04-25T19:56:35.146Z,2.47
2019-04-25T19:59:03.837Z,2.20
2019-04-25T20:01:32.287Z,1.80
2019-04-25T20:04:05.053Z,2.00
2019-04-25T20:06:41.069Z,1.85
2019-04-25T20:09:14.333Z,1.70
2019-04-25T20:11:45.256Z,1.42
2019-04-25T20:14:13.753Z,1.62
2019-04-25T20:16:44.903Z,2.00
2019-04-25T20:19:13.954Z,1.70
2019-04-25T20:21:44.395Z,2.00
2019-04-25T20:24:12.961Z,1.60
2019-04-25T20:26:41.396Z,1.60
2019-04-25T20:29:09.905Z,1.98
2019-04-25T20:31:38.338Z,1.50
2019-04-25T20:34:06.776Z,1.80
2019-04-25T20:36:35.313Z,1.50
2019-04-25T20:39:05.288Z,1.90
2019-04-25T20:41:33.723Z,1.40
2019-04-25T20:44:02.287Z,1.50
2019-04-25T20:46:30.723Z,2.10
2019-04-25T20:48:59.139Z,2.60
2019-04-25T20:51:27.598Z,1.90
2019-04-25T20:53:57.039Z,1.60
2019-04-25T20:56:25.596Z,1.45
2019-04-25T20:58:54.036Z,1.60
2019-04-25T21:01:22.454Z,1.57
2019-04-25T21:03:51.982Z,2.17
2019-04-25T21:06:25.197Z,1.97
2019-04-25T21:08:53.618Z,2.60
2019-04-25T21:11:22.037Z,2.40
2019-04-25T21:13:52.951Z,1.67
2019-04-25T21:16:40.631Z,1.50
2019-04-25T21:19:13.381Z,1.90
2019-04-25T21:21:42.053Z,1.62
2019-04-25T21:24:10.510Z,1.87
2019-04-25T21:26:38.969Z,1.90
2019-04-25T21:29:07.469Z,1.40
2019-04-25T21:31:35.970Z,1.50
2019-04-25T21:34:04.493Z,1.40
2019-04-25T21:36:33.196Z,1.47
2019-04-25T21:39:01.947Z,1.60
2019-04-25T21:41:38.110Z,1.67
2019-04-25T21:44:07.473Z,2.70
2019-04-25T21:46:36.143Z,1.75
2019-04-25T21:49:04.944Z,1.60
2019-04-25T21:51:33.640Z,1.60
2019-04-25T21:54:02.527Z,1.62
2019-04-25T21:56:32.132Z,1.55
2019-04-25T21:59:00.558Z,1.50
2019-04-25T22:01:31.364Z,1.40
2019-04-25T22:04:00.717Z,1.60
2019-04-25T22:06:29.419Z,1.50
2019-04-25T22:08:58.734Z,1.60
2019-04-25T22:11:27.530Z,1.60
2019-04-25T22:13:56.640Z,2.00
2019-04-25T22:16:26.025Z,1.70
2019-04-25T22:18:55.501Z,1.72
2019-04-25T22:21:37.231Z,1.70
2019-04-25T22:24:06.257Z,1.60
2019-04-25T22:26:25.209Z,1.70
2019-04-25T22:28:54.036Z,1.50
2019-04-25T22:31:27.000Z,1.50
2019-04-25T22:34:00.028Z,2.08
2019-04-25T22:36:29.089Z,1.57
2019-04-25T22:39:11.052Z,1.50
2019-04-25T22:41:42.052Z,1.40
2019-04-25T22:44:12.203Z,1.50
2019-04-25T22:46:41.080Z,1.60
2019-04-25T22:49:09.589Z,1.77
2019-04-25T22:51:38.090Z,1.98
2019-04-25T22:54:07.373Z,1.67
2019-04-25T22:56:35.860Z,1.70
2019-04-25T22:59:04.921Z,1.72
2019-04-25T23:01:40.961Z,2.00
2019-04-25T23:04:13.661Z,1.85
2019-04-25T23:06:42.365Z,1.50
2019-04-25T23:09:10.821Z,1.30
2019-04-25T23:11:39.481Z,1.70
2019-04-25T23:14:08.823Z,1.57
2019-04-25T23:16:37.849Z,1.75
2019-04-25T23:19:07.274Z,1.30
2019-04-25T23:21:35.987Z,1.52
2019-04-25T23:24:05.480Z,1.60
2019-04-25T23:26:38.953Z,1.50
2019-04-25T23:29:10.157Z,1.60
2019-04-25T23:31:40.309Z,1.70
2019-04-25T23:34:09.009Z,1.35
2019-04-25T23:36:37.461Z,1.60
2019-04-25T23:39:09.382Z,1.70
2019-04-25T23:41:38.205Z,1.70
2019-04-25T23:44:07.911Z,1.90
2019-04-25T23:46:36.749Z,1.60
2019-04-25T23:49:06.461Z,1.50
2019-04-25T23:51:35.902Z,1.75
2019-04-25T23:54:04.767Z,1.40
2019-04-25T23:56:33.192Z,2.00
2019-04-25T23:59:01.818Z,1.60
